createdAt,value
2022-10-17T00:00:49.383Z,96293.84
2022-10-17T00:01:52.599Z,96299.00
2022-10-17T00:02:56.600Z,96297.47
2022-10-17T00:03:58.375Z,96290.41
2022-10-17T00:05:01.222Z,96288.88
2022-10-17T00:06:06.127Z,96294.38
2022-10-17T00:07:08.948Z,96292.84
2022-10-17T00:08:12.929Z,96298.34
2022-10-17T00:09:16.948Z,96291.31
2022-10-17T00:10:19.845Z,96291.31
2022-10-17T00:11:24.493Z,96296.03
2022-10-17T00:12:26.278Z,96298.00
2022-10-17T00:13:29.599Z,96288.97
2022-10-17T00:14:31.445Z,96293.72
2022-10-17T00:15:34.491Z,96292.94
2022-10-17T00:16:37.344Z,96303.19
2022-10-17T00:17:41.974Z,96291.38
2022-10-17T00:18:44.725Z,96297.69
2022-10-17T00:19:46.517Z,96287.88
2022-10-17T00:20:49.275Z,96289.09
2022-10-17T00:21:51.098Z,96291.84
2022-10-17T00:22:54.355Z,96293.03
2022-10-17T00:23:56.355Z,96295.78
2022-10-17T00:24:59.089Z,96295.47
2022-10-17T00:26:02.448Z,96300.97
2022-10-17T00:27:05.751Z,96298.66
2022-10-17T00:28:09.538Z,96304.94
2022-10-17T00:29:13.473Z,96310.44
2022-10-17T00:30:16.625Z,96297.88
2022-10-17T00:31:21.294Z,96308.91
2022-10-17T00:32:23.151Z,96305.38
2022-10-17T00:33:28.071Z,96297.88
2022-10-17T00:34:30.832Z,96304.59
2022-10-17T00:35:34.044Z,96301.84
2022-10-17T00:36:35.823Z,96302.63
2022-10-17T00:37:38.777Z,96301.09
2022-10-17T00:38:42.201Z,96304.25
2022-10-17T00:39:45.195Z,96304.25
2022-10-17T00:40:47.006Z,96301.16
2022-10-17T00:41:51.696Z,96301.63
2022-10-17T00:42:54.821Z,96305.56
2022-10-17T00:43:59.894Z,96294.97
2022-10-17T00:45:12.526Z,96304.47
2022-10-17T00:46:15.375Z,96304.47
2022-10-17T00:47:21.131Z,96302.94
2022-10-17T00:48:27.061Z,96311.63
2022-10-17T00:49:32.755Z,96309.28
2022-10-17T00:50:37.678Z,96308.09
2022-10-17T00:51:43.356Z,96304.56
2022-10-17T00:52:48.075Z,96312.50
2022-10-17T00:53:51.855Z,96304.66
2022-10-17T00:54:59.373Z,96311.72
2022-10-17T00:56:01.820Z,96303.09
2022-10-17T00:57:05.554Z,96311.38
2022-10-17T00:58:07.346Z,96315.69
2022-10-17T00:59:13.899Z,96308.63
2022-10-17T01:00:17.192Z,96305.09
2022-10-17T01:01:20.054Z,96307.09
2022-10-17T01:02:22.823Z,96313.34
2022-10-17T01:03:27.060Z,96307.50
2022-10-17T01:04:29.064Z,96304.34
2022-10-17T01:05:31.967Z,96299.25
2022-10-17T01:06:33.715Z,96300.03
2022-10-17T01:07:37.840Z,96304.00
2022-10-17T01:08:40.882Z,96305.22
2022-10-17T01:09:46.016Z,96303.66
2022-10-17T01:10:58.777Z,96302.88
2022-10-17T01:12:11.241Z,96309.63
2022-10-17T01:13:24.212Z,96301.78
2022-10-17T01:14:31.405Z,96300.22
2022-10-17T01:15:44.182Z,96306.94
2022-10-17T01:16:54.359Z,96314.44
2022-10-17T01:18:09.877Z,96308.16
2022-10-17T01:19:38.440Z,96308.16
2022-10-17T01:21:19.040Z,96302.66
2022-10-17T01:22:27.416Z,96301.09
2022-10-17T01:24:07.243Z,96298.00
2022-10-17T01:25:29.182Z,96296.47
2022-10-17T01:26:45.449Z,96303.50
2022-10-17T01:28:12.555Z,96298.47
2022-10-17T01:29:31.771Z,96299.66
2022-10-17T01:30:57.227Z,96303.63
2022-10-17T01:32:02.577Z,96304.38
2022-10-17T01:33:09.568Z,96305.56
2022-10-17T01:34:18.048Z,96305.56
2022-10-17T01:35:27.143Z,96305.56
2022-10-17T01:36:41.120Z,96306.78
2022-10-17T01:37:48.351Z,96299.75
2022-10-17T01:38:57.003Z,96309.22
2022-10-17T01:40:07.375Z,96302.94
2022-10-17T01:41:17.846Z,96295.09
2022-10-17T01:42:25.284Z,96303.38
2022-10-17T01:43:34.987Z,96300.59
2022-10-17T01:44:42.551Z,96307.00
2022-10-17T01:45:50.702Z,96304.63
2022-10-17T01:47:01.430Z,96301.53
2022-10-17T01:48:09.929Z,96305.50
2022-10-17T01:49:16.307Z,96308.25
2022-10-17T01:50:24.385Z,96303.94
2022-10-17T01:51:30.726Z,96305.94
2022-10-17T01:52:42.561Z,96310.25
2022-10-17T01:53:58.481Z,96300.44
2022-10-17T01:55:07.170Z,96299.66
2022-10-17T01:56:13.500Z,96300.09
2022-10-17T01:57:22.486Z,96294.59
2022-10-17T01:58:30.044Z,96300.09
2022-10-17T01:59:39.874Z,96298.56
2022-10-17T02:00:45.359Z,96297.00
2022-10-17T02:01:54.716Z,96297.44
2022-10-17T02:03:02.079Z,96300.63
2022-10-17T02:04:09.055Z,96303.38
2022-10-17T02:05:11.335Z,96304.13
2022-10-17T02:06:14.230Z,96299.84
2022-10-17T02:07:16.072Z,96305.78
2022-10-17T02:08:26.741Z,96307.78
2022-10-17T02:09:28.607Z,96304.25
2022-10-17T02:10:39.877Z,96296.41
2022-10-17T02:11:50.651Z,96295.66
2022-10-17T02:12:59.651Z,96301.16
2022-10-17T02:14:17.763Z,96299.59
2022-10-17T02:15:38.703Z,96298.06
2022-10-17T02:16:46.608Z,96296.50
2022-10-17T02:17:59.103Z,96294.97
2022-10-17T02:19:24.425Z,96301.69
2022-10-17T02:20:32.709Z,96296.19
2022-10-17T02:21:46.339Z,96292.63
2022-10-17T02:22:56.854Z,96290.69
2022-10-17T02:24:08.181Z,96292.22
2022-10-17T02:25:15.762Z,96294.19
2022-10-17T02:26:25.841Z,96280.84
2022-10-17T02:27:40.279Z,96290.34
2022-10-17T02:28:47.469Z,96286.38
2022-10-17T02:29:55.565Z,96286.03
2022-10-17T02:31:03.638Z,96293.50
2022-10-17T02:32:09.373Z,96288.44
2022-10-17T02:33:17.311Z,96280.63
2022-10-17T02:34:25.508Z,96288.88
2022-10-17T02:35:32.239Z,96292.41
2022-10-17T02:36:39.060Z,96289.66
2022-10-17T02:37:44.673Z,96292.06
2022-10-17T02:38:47.192Z,96290.53
2022-10-17T02:39:51.911Z,96288.97
2022-10-17T02:40:54.798Z,96286.63
2022-10-17T02:42:00.060Z,96294.13
2022-10-17T02:43:01.917Z,96291.38
2022-10-17T02:44:07.836Z,96294.13
2022-10-17T02:45:10.896Z,96295.34
2022-10-17T02:46:20.682Z,96289.84
2022-10-17T02:47:27.703Z,96294.56
2022-10-17T02:48:38.295Z,96296.53
2022-10-17T02:49:48.674Z,96298.50
2022-10-17T02:51:03.070Z,96298.50
2022-10-17T02:52:11.049Z,96301.69
2022-10-17T02:53:18.510Z,96310.38
2022-10-17T02:54:28.350Z,96301.78
2022-10-17T02:55:33.818Z,96308.06
2022-10-17T02:57:00.320Z,96301.03
2022-10-17T02:58:07.083Z,96301.03
2022-10-17T02:59:18.562Z,96303.78
2022-10-17T03:00:22.434Z,96303.78
2022-10-17T03:01:26.473Z,96307.72
2022-10-17T03:02:28.997Z,96305.72
2022-10-17T03:03:33.315Z,96306.94
2022-10-17T03:04:37.301Z,96308.94
2022-10-17T03:05:41.571Z,96306.59
2022-10-17T03:06:45.192Z,96318.38
2022-10-17T03:07:48.600Z,96307.00
2022-10-17T03:08:50.485Z,96312.97
2022-10-17T03:09:54.617Z,96316.13
2022-10-17T03:10:57.401Z,96316.13
2022-10-17T03:12:02.317Z,96306.34
2022-10-17T03:13:04.567Z,96318.53
2022-10-17T03:14:10.881Z,96313.81
2022-10-17T03:15:13.719Z,96318.53
2022-10-17T03:16:17.141Z,96318.53
2022-10-17T03:17:19.556Z,96315.78
2022-10-17T03:18:22.992Z,96321.28
2022-10-17T03:19:27.421Z,96320.09
2022-10-17T03:20:30.528Z,96313.81
2022-10-17T03:21:33.992Z,96324.03
2022-10-17T03:22:37.119Z,96321.75
2022-10-17T03:23:40.791Z,96326.44
2022-10-17T03:24:43.651Z,96320.94
2022-10-17T03:25:45.461Z,96326.91
2022-10-17T03:26:49.919Z,96333.59
2022-10-17T03:27:51.888Z,96332.06
2022-10-17T03:28:54.809Z,96335.97
2022-10-17T03:29:58.008Z,96333.25
2022-10-17T03:31:01.391Z,96325.44
2022-10-17T03:32:03.327Z,96335.22
2022-10-17T03:33:06.231Z,96328.94
2022-10-17T03:34:08.217Z,96322.69
2022-10-17T03:35:14.776Z,96326.63
2022-10-17T03:36:21.237Z,96323.53
2022-10-17T03:37:24.465Z,96331.00
2022-10-17T03:38:27.245Z,96327.50
2022-10-17T03:39:29.185Z,96325.91
2022-10-17T03:40:32.096Z,96324.38
2022-10-17T03:41:35.406Z,96328.69
2022-10-17T03:42:38.979Z,96330.66
2022-10-17T03:43:42.256Z,96328.34
2022-10-17T03:44:44.179Z,96328.00
2022-10-17T03:45:46.995Z,96322.16
2022-10-17T03:46:48.786Z,96326.88
2022-10-17T03:47:51.580Z,96325.31
2022-10-17T03:48:53.623Z,96330.06
2022-10-17T03:49:56.749Z,96326.53
2022-10-17T03:51:00.502Z,96321.47
2022-10-17T03:52:03.908Z,96334.00
2022-10-17T03:53:07.208Z,96323.44
2022-10-17T03:54:10.145Z,96335.22
2022-10-17T03:55:11.949Z,96330.94
2022-10-17T03:56:17.139Z,96330.94
2022-10-17T03:57:22.221Z,96329.38
2022-10-17T03:58:24.815Z,96325.44
2022-10-17T03:59:29.554Z,96330.13
2022-10-17T04:00:38.675Z,96324.63
2022-10-17T04:01:41.529Z,96334.88
2022-10-17T04:02:44.888Z,96331.34
2022-10-17T04:03:55.608Z,96327.81
2022-10-17T04:04:57.457Z,96331.75
2022-10-17T04:06:00.888Z,96330.22
2022-10-17T04:07:03.436Z,96328.66
2022-10-17T04:08:08.060Z,96326.72
2022-10-17T04:09:29.463Z,96334.16
2022-10-17T04:10:45.991Z,96331.41
2022-10-17T04:11:49.106Z,96337.34
2022-10-17T04:12:51.592Z,96336.56
2022-10-17T04:13:55.612Z,96331.88
2022-10-17T04:14:58.269Z,96342.06
2022-10-17T04:16:04.628Z,96337.78
2022-10-17T04:17:07.388Z,96345.25
2022-10-17T04:18:10.323Z,96343.69
2022-10-17T04:19:14.515Z,96346.44
2022-10-17T04:20:20.139Z,96336.66
2022-10-17T04:21:24.572Z,96342.94
2022-10-17T04:22:28.267Z,96346.88
2022-10-17T04:23:31.678Z,96350.81
2022-10-17T04:24:40.286Z,96349.63
2022-10-17T04:25:55.868Z,96343.78
2022-10-17T04:26:58.655Z,96342.22
2022-10-17T04:28:03.786Z,96352.44
2022-10-17T04:29:06.770Z,96347.72
2022-10-17T04:30:09.119Z,96348.94
2022-10-17T04:31:14.844Z,96344.63
2022-10-17T04:32:38.478Z,96350.13
2022-10-17T04:33:50.447Z,96347.38
2022-10-17T04:34:53.334Z,96349.78
2022-10-17T04:35:58.387Z,96347.81
2022-10-17T04:37:01.413Z,96352.53
2022-10-17T04:38:03.963Z,96341.56
2022-10-17T04:39:08.547Z,96347.06
2022-10-17T04:40:11.662Z,96341.56
2022-10-17T04:41:16.566Z,96340.00
2022-10-17T04:42:18.429Z,96344.72
2022-10-17T04:43:21.950Z,96339.22
2022-10-17T04:44:24.486Z,96344.72
2022-10-17T04:45:30.934Z,96346.69
2022-10-17T04:46:43.358Z,96350.63
2022-10-17T04:47:46.199Z,96345.56
2022-10-17T04:48:48.034Z,96345.56
2022-10-17T04:49:51.020Z,96354.25
2022-10-17T04:50:55.160Z,96347.53
2022-10-17T04:52:16.358Z,96351.50
2022-10-17T04:53:19.820Z,96358.16
2022-10-17T04:54:24.244Z,96354.66
2022-10-17T04:55:38.463Z,96363.66
2022-10-17T04:56:41.316Z,96356.63
2022-10-17T04:57:43.394Z,96353.88
2022-10-17T04:58:53.361Z,96351.13
2022-10-17T04:59:55.194Z,96361.38
2022-10-17T05:01:28.065Z,96358.25
2022-10-17T05:02:32.144Z,96364.53
2022-10-17T05:03:38.388Z,96363.34
2022-10-17T05:04:43.092Z,96361.78
2022-10-17T05:05:47.013Z,96352.00
2022-10-17T05:06:49.836Z,96361.44
2022-10-17T05:08:09.165Z,96355.94
2022-10-17T05:09:11.140Z,96356.69
2022-10-17T05:10:15.580Z,96354.41
2022-10-17T05:11:22.282Z,96355.94
2022-10-17T05:12:25.596Z,96363.00
2022-10-17T05:13:29.481Z,96356.69
2022-10-17T05:14:32.765Z,96357.50
2022-10-17T05:15:36.485Z,96365.75
2022-10-17T05:16:39.427Z,96357.50
2022-10-17T05:17:41.291Z,96363.00
2022-10-17T05:18:46.585Z,96366.94
2022-10-17T05:19:51.389Z,96368.50
2022-10-17T05:20:54.322Z,96367.69
2022-10-17T05:21:56.148Z,96370.13
2022-10-17T05:23:00.480Z,96365.38
2022-10-17T05:24:11.203Z,96369.31
2022-10-17T05:25:17.037Z,96370.53
2022-10-17T05:26:20.127Z,96370.94
2022-10-17T05:27:22.996Z,96376.09
2022-10-17T05:28:25.125Z,96381.22
2022-10-17T05:29:29.220Z,96374.63
2022-10-17T05:30:40.397Z,96377.38
2022-10-17T05:31:43.983Z,96376.59
2022-10-17T05:32:46.715Z,96382.84
2022-10-17T05:33:49.498Z,96382.84
2022-10-17T05:34:51.301Z,96382.84
2022-10-17T05:35:54.313Z,96382.84
2022-10-17T05:36:57.437Z,96387.16
2022-10-17T05:38:01.086Z,96384.44
2022-10-17T05:39:05.214Z,96382.09
2022-10-17T05:40:11.133Z,96379.75
2022-10-17T05:41:15.489Z,96389.97
2022-10-17T05:42:17.628Z,96379.00
2022-10-17T05:43:21.771Z,96381.75
2022-10-17T05:44:23.705Z,96385.25
2022-10-17T05:45:30.780Z,96385.25
2022-10-17T05:46:32.869Z,96390.75
2022-10-17T05:47:35.773Z,96385.25
2022-10-17T05:48:39.111Z,96385.25
2022-10-17T05:49:50.020Z,96390.75
2022-10-17T05:51:01.315Z,96396.25
2022-10-17T05:52:04.878Z,96393.50
2022-10-17T05:53:13.978Z,96396.25
2022-10-17T05:54:20.752Z,96389.56
2022-10-17T05:55:23.965Z,96391.47
2022-10-17T05:56:28.356Z,96390.63
2022-10-17T05:57:31.235Z,96391.31
2022-10-17T05:58:54.129Z,96389.25
2022-10-17T06:00:22.237Z,96384.81
2022-10-17T06:01:31.107Z,96400.03
2022-10-17T06:02:34.268Z,96398.06
2022-10-17T06:03:36.396Z,96401.56
2022-10-17T06:04:45.479Z,96404.78
2022-10-17T06:05:48.492Z,96403.56
2022-10-17T06:06:52.364Z,96408.19
2022-10-17T06:07:57.069Z,96405.78
2022-10-17T06:09:03.020Z,96411.28
2022-10-17T06:10:09.836Z,96412.50
2022-10-17T06:11:13.427Z,96408.19
2022-10-17T06:12:16.723Z,96409.06
2022-10-17T06:13:21.739Z,96413.03
2022-10-17T06:14:27.585Z,96407.16
2022-10-17T06:15:36.605Z,96405.59
2022-10-17T06:16:43.399Z,96408.00
2022-10-17T06:17:46.404Z,96412.31
2022-10-17T06:19:57.723Z,96410.28
2022-10-17T06:21:04.235Z,96411.44
2022-10-17T06:22:07.128Z,96413.03
2022-10-17T06:23:09.827Z,96408.28
2022-10-17T06:24:23.824Z,96412.22
2022-10-17T06:25:29.849Z,96413.03
2022-10-17T06:26:31.836Z,96411.44
2022-10-17T06:27:36.043Z,96410.28
2022-10-17T06:28:38.259Z,96405.09
2022-10-17T06:29:41.865Z,96408.19
2022-10-17T06:30:45.555Z,96409.00
2022-10-17T06:31:47.704Z,96415.25
2022-10-17T06:32:50.717Z,96408.19
2022-10-17T06:33:53.720Z,96409.00
2022-10-17T06:34:56.495Z,96411.28
2022-10-17T06:35:58.569Z,96418.72
2022-10-17T06:37:02.257Z,96408.03
2022-10-17T06:38:05.173Z,96417.44
2022-10-17T06:39:10.660Z,96419.75
2022-10-17T06:40:17.862Z,96419.75
2022-10-17T06:41:21.523Z,96424.06
2022-10-17T06:42:28.112Z,96421.31
2022-10-17T06:43:50.908Z,96426.81
2022-10-17T06:45:14.300Z,96426.00
2022-10-17T06:46:21.462Z,96432.31
2022-10-17T06:47:32.474Z,96435.06
2022-10-17T06:48:39.362Z,96439.00
2022-10-17T06:50:00.759Z,96431.94
2022-10-17T06:51:13.192Z,96440.97
2022-10-17T06:52:29.510Z,96443.31
2022-10-17T06:54:05.205Z,96441.75
2022-10-17T06:55:18.273Z,96442.19
2022-10-17T06:56:51.075Z,96450.44
2022-10-17T06:58:10.730Z,96449.63
2022-10-17T06:59:21.043Z,96451.19
2022-10-17T07:00:33.248Z,96451.19
2022-10-17T07:01:35.369Z,96457.47
2022-10-17T07:02:39.839Z,96456.69
2022-10-17T07:03:41.722Z,96462.19
2022-10-17T07:04:47.011Z,96455.94
2022-10-17T07:05:51.731Z,96460.63
2022-10-17T07:06:54.821Z,96465.34
2022-10-17T07:07:58.905Z,96472.44
2022-10-17T07:09:02.864Z,96468.88
2022-10-17T07:10:08.608Z,96470.84
2022-10-17T07:11:13.988Z,96470.84
2022-10-17T07:12:17.861Z,96471.63
2022-10-17T07:13:20.659Z,96471.63
2022-10-17T07:14:31.784Z,96471.97
2022-10-17T07:15:35.327Z,96474.66
2022-10-17T07:16:37.310Z,96463.94
2022-10-17T07:17:52.021Z,96469.28
2022-10-17T07:18:55.555Z,96473.44
2022-10-17T07:19:58.538Z,96474.03
2022-10-17T07:21:01.393Z,96480.19
2022-10-17T07:22:04.194Z,96487.06
2022-10-17T07:23:07.686Z,96473.50
2022-10-17T07:24:11.418Z,96476.41
2022-10-17T07:25:16.827Z,96477.81
2022-10-17T07:26:24.328Z,96480.78
2022-10-17T07:27:27.388Z,96494.72
2022-10-17T07:28:29.903Z,96492.56
2022-10-17T07:29:38.445Z,96492.03
2022-10-17T07:30:44.597Z,96491.09
2022-10-17T07:31:49.852Z,96498.81
2022-10-17T07:32:54.103Z,96490.06
2022-10-17T07:33:56.948Z,96495.03
2022-10-17T07:34:58.800Z,96492.63
2022-10-17T07:36:02.730Z,96492.97
2022-10-17T07:37:07.001Z,96486.59
2022-10-17T07:38:08.839Z,96495.97
2022-10-17T07:39:11.675Z,96493.56
2022-10-17T07:40:15.028Z,96494.66
2022-10-17T07:41:21.671Z,96498.09
2022-10-17T07:42:25.720Z,96501.97
2022-10-17T07:43:30.112Z,96502.75
2022-10-17T07:44:35.469Z,96507.06
2022-10-17T07:45:38.834Z,96503.09
2022-10-17T07:46:41.618Z,96502.66
2022-10-17T07:47:44.632Z,96510.47
2022-10-17T07:48:51.142Z,96508.88
2022-10-17T07:49:56.380Z,96493.44
2022-10-17T07:50:58.330Z,96504.00
2022-10-17T07:52:01.104Z,96495.31
2022-10-17T07:53:03.030Z,96503.59
2022-10-17T07:54:06.252Z,96501.59
2022-10-17T07:55:09.979Z,96499.59
2022-10-17T07:56:14.054Z,96501.94
2022-10-17T07:57:16.921Z,96502.69
2022-10-17T07:58:18.744Z,96505.47
2022-10-17T07:59:21.573Z,96504.28
2022-10-17T08:00:23.540Z,96514.06
2022-10-17T08:01:28.190Z,96507.38
2022-10-17T08:02:30.127Z,96506.16
2022-10-17T08:03:33.701Z,96503.72
2022-10-17T08:04:36.379Z,96505.25
2022-10-17T08:05:39.375Z,96508.03
2022-10-17T08:06:41.161Z,96508.38
2022-10-17T08:07:44.057Z,96511.13
2022-10-17T08:08:46.862Z,96499.25
2022-10-17T08:09:49.739Z,96496.47
2022-10-17T08:10:51.507Z,96501.53
2022-10-17T08:12:24.249Z,96502.00
2022-10-17T08:13:26.060Z,96503.53
2022-10-17T08:14:28.856Z,96507.50
2022-10-17T08:15:32.117Z,96498.03
2022-10-17T08:16:36.531Z,96500.78
2022-10-17T08:17:38.977Z,96493.72
2022-10-17T08:18:43.444Z,96493.28
2022-10-17T08:19:45.233Z,96504.31
2022-10-17T08:20:48.656Z,96494.06
2022-10-17T08:21:50.520Z,96501.53
2022-10-17T08:22:53.791Z,96496.81
2022-10-17T08:23:55.928Z,96501.13
2022-10-17T08:24:58.747Z,96494.84
2022-10-17T08:26:01.391Z,96505.88
2022-10-17T08:27:11.130Z,96499.59
2022-10-17T08:28:13.896Z,96502.34
2022-10-17T08:29:17.785Z,96501.88
2022-10-17T08:30:19.715Z,96502.66
2022-10-17T08:31:23.583Z,96501.13
2022-10-17T08:32:29.059Z,96505.41
2022-10-17T08:33:33.124Z,96519.19
2022-10-17T08:34:34.977Z,96502.66
2022-10-17T08:35:39.857Z,96509.72
2022-10-17T08:36:41.807Z,96508.16
2022-10-17T08:37:44.734Z,96506.63
2022-10-17T08:38:51.634Z,96512.16
2022-10-17T08:39:55.293Z,96508.16
2022-10-17T08:41:01.345Z,96506.19
2022-10-17T08:42:25.626Z,96508.16
2022-10-17T08:43:51.124Z,96504.22
2022-10-17T08:45:01.286Z,96508.97
2022-10-17T08:46:06.706Z,96504.97
2022-10-17T08:47:16.044Z,96511.25
2022-10-17T08:48:26.590Z,96512.06
2022-10-17T08:49:39.385Z,96511.25
2022-10-17T08:50:46.355Z,96514.03
2022-10-17T08:51:55.501Z,96506.97
2022-10-17T08:53:04.143Z,96501.03
2022-10-17T08:54:15.656Z,96512.81
2022-10-17T08:55:24.116Z,96508.09
2022-10-17T08:56:44.451Z,96503.34
2022-10-17T08:57:50.611Z,96497.81
2022-10-17T08:58:53.499Z,96506.09
2022-10-17T08:59:56.805Z,96505.66
2022-10-17T09:01:12.779Z,96500.91
2022-10-17T09:02:35.637Z,96509.19
2022-10-17T09:04:00.008Z,96496.16
2022-10-17T09:05:28.249Z,96501.25
2022-10-17T09:06:36.144Z,96502.78
2022-10-17T09:07:46.973Z,96507.13
2022-10-17T09:09:01.657Z,96507.13
2022-10-17T09:10:10.021Z,96505.88
2022-10-17T09:11:26.155Z,96505.47
2022-10-17T09:12:37.655Z,96507.78
2022-10-17T09:13:57.547Z,96497.53
2022-10-17T09:15:21.801Z,96499.88
2022-10-17T09:16:41.210Z,96509.69
2022-10-17T09:17:52.903Z,96508.50
2022-10-17T09:19:01.866Z,96499.00
2022-10-17T09:20:11.000Z,96514.34
2022-10-17T09:21:21.464Z,96510.38
2022-10-17T09:22:28.301Z,96511.16
2022-10-17T09:23:36.153Z,96510.72
2022-10-17T09:24:44.171Z,96513.81
2022-10-17T09:25:50.781Z,96516.91
2022-10-17T09:26:55.761Z,96511.72
2022-10-17T09:28:05.978Z,96510.50
2022-10-17T09:29:17.588Z,96516.38
2022-10-17T09:30:44.658Z,96515.91
2022-10-17T09:31:55.190Z,96515.81
2022-10-17T09:32:58.072Z,96510.31
2022-10-17T09:34:04.022Z,96508.66
2022-10-17T09:35:12.193Z,96516.50
2022-10-17T09:36:18.472Z,96513.28
2022-10-17T09:37:27.287Z,96511.66
2022-10-17T09:38:38.103Z,96507.69
2022-10-17T09:39:41.771Z,96510.78
2022-10-17T09:40:44.701Z,96510.78
2022-10-17T09:41:51.399Z,96515.88
2022-10-17T09:42:53.888Z,96503.59
2022-10-17T09:43:57.894Z,96509.44
2022-10-17T09:45:18.477Z,96512.09
2022-10-17T09:46:29.864Z,96511.66
2022-10-17T09:47:41.298Z,96506.47
2022-10-17T09:48:48.736Z,96512.75
2022-10-17T09:49:56.541Z,96514.34
2022-10-17T09:51:14.905Z,96510.34
2022-10-17T09:52:26.621Z,96514.66
2022-10-17T09:53:34.441Z,96506.38
2022-10-17T09:54:44.173Z,96507.91
2022-10-17T09:55:50.427Z,96514.97
2022-10-17T09:57:00.186Z,96511.00
2022-10-17T09:58:05.768Z,96512.88
2022-10-17T09:59:13.791Z,96518.75
2022-10-17T10:00:23.428Z,96520.63
2022-10-17T10:01:28.938Z,96524.94
2022-10-17T10:02:32.564Z,96525.28
2022-10-17T10:03:35.872Z,96522.50
2022-10-17T10:05:05.958Z,96528.38
2022-10-17T10:06:16.025Z,96526.38
2022-10-17T10:07:19.459Z,96527.16
2022-10-17T10:08:24.957Z,96534.22
2022-10-17T10:09:30.818Z,96524.72
2022-10-17T10:10:34.718Z,96532.56
2022-10-17T10:11:48.873Z,96533.34
2022-10-17T10:13:04.289Z,96531.34
2022-10-17T10:14:13.627Z,96528.47
2022-10-17T10:15:34.353Z,96525.72
2022-10-17T10:16:43.670Z,96521.75
2022-10-17T10:17:46.544Z,96521.31
2022-10-17T10:18:51.173Z,96522.41
2022-10-17T10:19:53.934Z,96519.66
2022-10-17T10:21:08.563Z,96521.19
2022-10-17T10:22:17.213Z,96518.75
2022-10-17T10:23:21.392Z,96527.81
2022-10-17T10:24:30.447Z,96523.84
2022-10-17T10:25:33.320Z,96516.31
2022-10-17T10:26:40.141Z,96523.41
2022-10-17T10:27:44.109Z,96523.41
2022-10-17T10:28:55.624Z,96520.19
2022-10-17T10:29:58.720Z,96520.94
2022-10-17T10:31:06.157Z,96526.81
2022-10-17T10:32:11.195Z,96524.03
2022-10-17T10:33:13.188Z,96520.84
2022-10-17T10:34:21.283Z,96519.19
2022-10-17T10:35:29.056Z,96534.09
2022-10-17T10:36:47.143Z,96530.16
2022-10-17T10:37:53.967Z,96526.91
2022-10-17T10:39:00.175Z,96528.47
2022-10-17T10:40:09.040Z,96530.00
2022-10-17T10:41:11.814Z,96533.09
2022-10-17T10:42:24.937Z,96522.81
2022-10-17T10:43:34.272Z,96527.59
2022-10-17T10:44:40.678Z,96523.63
2022-10-17T10:45:48.702Z,96525.91
2022-10-17T10:47:07.799Z,96524.28
2022-10-17T10:48:21.311Z,96525.84
2022-10-17T10:49:30.260Z,96520.31
2022-10-17T10:50:42.987Z,96524.19
2022-10-17T10:51:49.742Z,96522.94
2022-10-17T10:53:08.863Z,96519.75
2022-10-17T10:54:18.674Z,96518.84
2022-10-17T10:55:26.487Z,96518.44
2022-10-17T10:56:30.950Z,96520.75
2022-10-17T10:57:37.657Z,96515.22
2022-10-17T10:58:51.700Z,96517.09
2022-10-17T11:00:00.751Z,96515.84
2022-10-17T11:01:08.025Z,96508.69
2022-10-17T11:02:17.256Z,96509.47
2022-10-17T11:03:24.686Z,96513.44
2022-10-17T11:04:32.313Z,96517.75
2022-10-17T11:05:42.065Z,96515.41
2022-10-17T11:06:47.035Z,96512.66
2022-10-17T11:07:59.970Z,96518.97
2022-10-17T11:09:19.798Z,96507.13
2022-10-17T11:10:26.337Z,96504.38
2022-10-17T11:11:32.252Z,96509.13
2022-10-17T11:12:39.260Z,96507.91
2022-10-17T11:13:49.605Z,96505.94
2022-10-17T11:14:59.832Z,96504.25
2022-10-17T11:16:07.709Z,96503.38
2022-10-17T11:17:20.889Z,96504.13
2022-10-17T11:18:27.531Z,96502.16
2022-10-17T11:19:35.551Z,96499.41
2022-10-17T11:20:49.614Z,96505.22
2022-10-17T11:22:06.380Z,96499.69
2022-10-17T11:23:21.009Z,96494.16
2022-10-17T11:24:25.422Z,96502.78
2022-10-17T11:25:35.330Z,96496.06
2022-10-17T11:26:43.225Z,96497.91
2022-10-17T11:27:45.322Z,96491.97
2022-10-17T11:28:48.947Z,96504.09
2022-10-17T11:29:51.730Z,96501.69
2022-10-17T11:30:58.797Z,96502.00
2022-10-17T11:32:06.138Z,96498.78
2022-10-17T11:33:13.334Z,96501.44
2022-10-17T11:34:20.148Z,96497.00
2022-10-17T11:35:27.654Z,96498.84
2022-10-17T11:36:32.837Z,96501.19
2022-10-17T11:37:40.644Z,96501.19
2022-10-17T11:38:50.189Z,96495.22
2022-10-17T11:39:56.165Z,96497.50
2022-10-17T11:40:59.989Z,96497.84
2022-10-17T11:42:07.179Z,96501.69
2022-10-17T11:43:14.966Z,96494.19
2022-10-17T11:44:23.553Z,96497.72
2022-10-17T11:45:27.592Z,96502.78
2022-10-17T11:46:31.572Z,96503.13
2022-10-17T11:47:44.894Z,96493.63
2022-10-17T11:49:01.745Z,96497.31
2022-10-17T11:52:01.682Z,96500.41
2022-10-17T11:53:10.431Z,96499.97
2022-10-17T11:54:18.737Z,96506.75
2022-10-17T11:55:23.675Z,96511.47
2022-10-17T11:56:36.168Z,96504.41
2022-10-17T11:57:52.531Z,96508.72
2022-10-17T11:59:02.979Z,96502.75
2022-10-17T12:00:20.575Z,96505.41
2022-10-17T12:01:32.631Z,96502.16
2022-10-17T12:02:42.651Z,96497.41
2022-10-17T12:04:00.570Z,96496.97
2022-10-17T12:05:12.005Z,96494.19
2022-10-17T12:06:22.229Z,96492.97
2022-10-17T12:07:36.980Z,96489.75
2022-10-17T12:08:47.193Z,96499.13
2022-10-17T12:09:57.275Z,96491.94
2022-10-17T12:11:05.227Z,96494.69
2022-10-17T12:12:08.558Z,96491.94
2022-10-17T12:14:03.770Z,96496.56
2022-10-17T12:15:31.339Z,96487.81
2022-10-17T12:16:49.057Z,96489.38
2022-10-17T12:17:56.725Z,96488.94
2022-10-17T12:19:25.256Z,96486.81
2022-10-17T12:20:34.625Z,96495.00
2022-10-17T12:21:55.370Z,96494.56
2022-10-17T12:23:05.178Z,96489.00
2022-10-17T12:24:31.335Z,96485.44
2022-10-17T12:26:46.403Z,96493.50
2022-10-17T12:27:50.445Z,96492.72
2022-10-17T12:28:52.678Z,96491.19
2022-10-17T12:30:00.923Z,96484.88
2022-10-17T12:31:07.064Z,96484.56
2022-10-17T12:32:12.961Z,96481.00
2022-10-17T12:33:22.267Z,96490.53
2022-10-17T12:34:24.583Z,96487.34
2022-10-17T12:35:29.234Z,96488.09
2022-10-17T12:36:40.290Z,96483.34
2022-10-17T12:38:01.800Z,96486.88
2022-10-17T12:39:46.027Z,96482.25
2022-10-17T12:40:54.075Z,96486.53
2022-10-17T12:42:47.816Z,96484.09
2022-10-17T12:43:53.168Z,96480.13
2022-10-17T12:44:55.290Z,96477.69
2022-10-17T12:45:58.856Z,96475.22
2022-10-17T12:47:38.921Z,96486.59
2022-10-17T12:49:00.564Z,96486.78
2022-10-17T12:50:03.439Z,96484.34
2022-10-17T12:53:01.048Z,96480.22
2022-10-17T12:54:12.054Z,96484.19
2022-10-17T12:55:18.208Z,96485.75
2022-10-17T12:56:30.771Z,96485.75
2022-10-17T12:57:38.407Z,96483.44
2022-10-17T12:58:46.065Z,96487.88
2022-10-17T12:59:48.633Z,96479.56
2022-10-17T13:01:22.732Z,96490.66
2022-10-17T13:02:22.753Z,96481.59
2022-10-17T13:03:29.185Z,96484.69
2022-10-17T13:04:32.927Z,96483.44
2022-10-17T13:05:39.442Z,96494.06
2022-10-17T13:06:46.300Z,96483.00
2022-10-17T13:07:50.774Z,96491.28
2022-10-17T13:09:03.512Z,96488.06
2022-10-17T13:10:05.348Z,96485.75
2022-10-17T13:11:09.764Z,96481.75
2022-10-17T13:12:18.394Z,96481.75
2022-10-17T13:13:24.957Z,96485.75
2022-10-17T13:14:28.636Z,96484.19
2022-10-17T13:15:31.970Z,96485.13
2022-10-17T13:16:37.449Z,96489.13
2022-10-17T13:17:43.046Z,96483.72
2022-10-17T13:18:54.378Z,96486.91